sensor_id;sensor_type;location;lat;lon;timestamp;P1;durP1;ratioP1;P2;durP2;ratioP2
53263;SDS011;39153;52.680;6.172;2023-06-26T00:00:20;9.23;;;6.95;;
53263;SDS011;39153;52.680;6.172;2023-06-26T00:02:45;9.07;;;7.65;;
53263;SDS011;39153;52.680;6.172;2023-06-26T00:05:11;8.68;;;7.65;;
53263;SDS011;39153;52.680;6.172;2023-06-26T00:07:38;10.43;;;8.02;;
53263;SDS011;39153;52.680;6.172;2023-06-26T00:10:04;12.23;;;8.07;;
53263;SDS011;39153;52.680;6.172;2023-06-26T00:12:31;13.07;;;7.68;;
53263;SDS011;39153;52.680;6.172;2023-06-26T00:14:57;9.05;;;7.63;;
53263;SDS011;39153;52.680;6.172;2023-06-26T00:17:23;10.02;;;7.90;;
53263;SDS011;39153;52.680;6.172;2023-06-26T00:19:49;9.60;;;7.75;;
53263;SDS011;39153;52.680;6.172;2023-06-26T00:22:15;9.68;;;7.43;;
53263;SDS011;39153;52.680;6.172;2023-06-26T00:24:41;9.43;;;7.80;;
53263;SDS011;39153;52.680;6.172;2023-06-26T00:27:07;10.70;;;8.07;;
53263;SDS011;39153;52.680;6.172;2023-06-26T00:29:32;11.48;;;7.70;;
53263;SDS011;39153;52.680;6.172;2023-06-26T00:31:58;9.20;;;7.82;;
53263;SDS011;39153;52.680;6.172;2023-06-26T00:34:24;9.70;;;7.85;;
53263;SDS011;39153;52.680;6.172;2023-06-26T00:36:49;9.48;;;7.78;;
53263;SDS011;39153;52.680;6.172;2023-06-26T00:39:15;9.65;;;8.30;;
53263;SDS011;39153;52.680;6.172;2023-06-26T00:41:41;10.82;;;7.75;;
53263;SDS011;39153;52.680;6.172;2023-06-26T00:44:06;10.70;;;9.00;;
53263;SDS011;39153;52.680;6.172;2023-06-26T00:46:32;10.98;;;8.35;;
53263;SDS011;39153;52.680;6.172;2023-06-26T00:48:59;9.60;;;8.38;;
53263;SDS011;39153;52.680;6.172;2023-06-26T00:51:27;10.35;;;9.13;;
53263;SDS011;39153;52.680;6.172;2023-06-26T00:53:54;10.88;;;9.35;;
53263;SDS011;39153;52.680;6.172;2023-06-26T00:56:21;12.63;;;9.93;;
53263;SDS011;39153;52.680;6.172;2023-06-26T00:58:47;11.73;;;9.63;;
53263;SDS011;39153;52.680;6.172;2023-06-26T01:01:13;10.27;;;9.18;;
53263;SDS011;39153;52.680;6.172;2023-06-26T01:03:45;10.13;;;9.07;;
53263;SDS011;39153;52.680;6.172;2023-06-26T01:06:16;10.65;;;9.20;;
53263;SDS011;39153;52.680;6.172;2023-06-26T01:08:44;11.90;;;9.68;;
53263;SDS011;39153;52.680;6.172;2023-06-26T01:11:12;10.77;;;9.68;;
53263;SDS011;39153;52.680;6.172;2023-06-26T01:13:38;10.70;;;9.60;;
53263;SDS011;39153;52.680;6.172;2023-06-26T01:16:06;11.00;;;9.27;;
53263;SDS011;39153;52.680;6.172;2023-06-26T01:18:32;10.73;;;9.40;;
53263;SDS011;39153;52.680;6.172;2023-06-26T01:20:58;13.65;;;9.88;;
53263;SDS011;39153;52.680;6.172;2023-06-26T01:26:23;10.35;;;9.20;;
53263;SDS011;39153;52.680;6.172;2023-06-26T01:28:52;11.15;;;9.95;;
53263;SDS011;39153;52.680;6.172;2023-06-26T01:31:19;11.00;;;9.70;;
53263;SDS011;39153;52.680;6.172;2023-06-26T01:33:45;11.38;;;9.60;;
53263;SDS011;39153;52.680;6.172;2023-06-26T01:36:12;12.50;;;9.68;;
53263;SDS011;39153;52.680;6.172;2023-06-26T01:38:38;11.02;;;9.82;;
53263;SDS011;39153;52.680;6.172;2023-06-26T01:41:04;10.98;;;9.77;;
53263;SDS011;39153;52.680;6.172;2023-06-26T01:43:36;12.57;;;10.48;;
53263;SDS011;39153;52.680;6.172;2023-06-26T01:46:18;11.10;;;9.90;;
53263;SDS011;39153;52.680;6.172;2023-06-26T01:51:46;11.95;;;10.75;;
53263;SDS011;39153;52.680;6.172;2023-06-26T01:54:18;13.07;;;10.68;;
53263;SDS011;39153;52.680;6.172;2023-06-26T01:56:49;12.40;;;11.10;;
53263;SDS011;39153;52.680;6.172;2023-06-26T01:59:17;12.55;;;11.25;;
53263;SDS011;39153;52.680;6.172;2023-06-26T02:01:46;12.52;;;11.23;;
53263;SDS011;39153;52.680;6.172;2023-06-26T02:04:12;13.48;;;10.98;;
53263;SDS011;39153;52.680;6.172;2023-06-26T02:06:37;12.48;;;10.98;;
53263;SDS011;39153;52.680;6.172;2023-06-26T02:09:03;13.95;;;11.93;;
53263;SDS011;39153;52.680;6.172;2023-06-26T02:11:29;13.10;;;11.60;;
53263;SDS011;39153;52.680;6.172;2023-06-26T02:13:54;13.43;;;12.05;;
53263;SDS011;39153;52.680;6.172;2023-06-26T02:16:20;13.20;;;11.90;;
53263;SDS011;39153;52.680;6.172;2023-06-26T02:18:46;14.25;;;11.95;;
53263;SDS011;39153;52.680;6.172;2023-06-26T02:21:13;13.20;;;11.80;;
53263;SDS011;39153;52.680;6.172;2023-06-26T02:23:38;13.15;;;11.75;;
53263;SDS011;39153;52.680;6.172;2023-06-26T02:26:04;13.00;;;11.70;;
53263;SDS011;39153;52.680;6.172;2023-06-26T02:28:30;14.10;;;12.38;;
53263;SDS011;39153;52.680;6.172;2023-06-26T02:30:56;13.55;;;12.15;;
53263;SDS011;39153;52.680;6.172;2023-06-26T02:33:22;14.70;;;11.82;;
53263;SDS011;39153;52.680;6.172;2023-06-26T02:35:47;13.88;;;12.40;;
53263;SDS011;39153;52.680;6.172;2023-06-26T02:38:15;13.88;;;12.45;;
53263;SDS011;39153;52.680;6.172;2023-06-26T02:40:41;14.48;;;12.70;;
53263;SDS011;39153;52.680;6.172;2023-06-26T02:43:06;14.95;;;13.23;;
53263;SDS011;39153;52.680;6.172;2023-06-26T02:45:32;15.10;;;13.48;;
53263;SDS011;39153;52.680;6.172;2023-06-26T02:47:58;15.50;;;12.85;;
53263;SDS011;39153;52.680;6.172;2023-06-26T02:50:23;14.07;;;12.68;;
53263;SDS011;39153;52.680;6.172;2023-06-26T02:52:49;14.00;;;12.50;;
53263;SDS011;39153;52.680;6.172;2023-06-26T02:55:17;14.68;;;13.18;;
53263;SDS011;39153;52.680;6.172;2023-06-26T02:57:46;13.90;;;12.05;;
53263;SDS011;39153;52.680;6.172;2023-06-26T03:00:12;13.82;;;12.30;;
53263;SDS011;39153;52.680;6.172;2023-06-26T03:02:38;13.90;;;12.38;;
53263;SDS011;39153;52.680;6.172;2023-06-26T03:05:04;13.50;;;11.52;;
53263;SDS011;39153;52.680;6.172;2023-06-26T03:07:30;14.30;;;12.05;;
53263;SDS011;39153;52.680;6.172;2023-06-26T03:09:55;13.88;;;12.00;;
53263;SDS011;39153;52.680;6.172;2023-06-26T03:12:22;12.20;;;11.00;;
53263;SDS011;39153;52.680;6.172;2023-06-26T03:14:47;11.63;;;10.10;;
53263;SDS011;39153;52.680;6.172;2023-06-26T03:17:13;11.27;;;9.63;;
53263;SDS011;39153;52.680;6.172;2023-06-26T03:19:39;12.07;;;8.75;;
53263;SDS011;39153;52.680;6.172;2023-06-26T03:22:04;11.43;;;8.10;;
53263;SDS011;39153;52.680;6.172;2023-06-26T03:24:30;12.55;;;8.68;;
53263;SDS011;39153;52.680;6.172;2023-06-26T03:26:55;10.40;;;7.70;;
53263;SDS011;39153;52.680;6.172;2023-06-26T03:29:21;10.88;;;7.60;;
53263;SDS011;39153;52.680;6.172;2023-06-26T03:31:47;9.55;;;6.90;;
53263;SDS011;39153;52.680;6.172;2023-06-26T03:34:13;12.27;;;6.50;;
53263;SDS011;39153;52.680;6.172;2023-06-26T03:36:38;8.18;;;6.70;;
53263;SDS011;39153;52.680;6.172;2023-06-26T03:39:04;15.88;;;7.30;;
53263;SDS011;39153;52.680;6.172;2023-06-26T03:41:30;11.10;;;6.95;;
53263;SDS011;39153;52.680;6.172;2023-06-26T03:43:55;11.15;;;7.78;;
53263;SDS011;39153;52.680;6.172;2023-06-26T03:46:21;10.32;;;8.25;;
53263;SDS011;39153;52.680;6.172;2023-06-26T03:48:47;13.65;;;8.75;;
53263;SDS011;39153;52.680;6.172;2023-06-26T03:51:13;11.35;;;8.48;;
53263;SDS011;39153;52.680;6.172;2023-06-26T03:53:39;11.85;;;8.30;;
53263;SDS011;39153;52.680;6.172;2023-06-26T03:56:05;11.27;;;8.85;;
53263;SDS011;39153;52.680;6.172;2023-06-26T03:58:31;12.23;;;9.10;;
53263;SDS011;39153;52.680;6.172;2023-06-26T04:00:56;14.00;;;9.35;;
53263;SDS011;39153;52.680;6.172;2023-06-26T04:03:23;9.80;;;7.88;;
53263;SDS011;39153;52.680;6.172;2023-06-26T04:05:48;11.95;;;7.82;;
53263;SDS011;39153;52.680;6.172;2023-06-26T04:08:14;12.00;;;6.70;;
53263;SDS011;39153;52.680;6.172;2023-06-26T04:10:40;10.70;;;6.35;;
53263;SDS011;39153;52.680;6.172;2023-06-26T04:13:06;12.02;;;6.57;;
53263;SDS011;39153;52.680;6.172;2023-06-26T04:15:31;12.25;;;7.03;;
53263;SDS011;39153;52.680;6.172;2023-06-26T04:17:57;14.90;;;6.72;;
53263;SDS011;39153;52.680;6.172;2023-06-26T04:20:23;18.30;;;7.20;;
53263;SDS011;39153;52.680;6.172;2023-06-26T04:22:48;14.52;;;6.95;;
53263;SDS011;39153;52.680;6.172;2023-06-26T04:25:14;15.30;;;6.78;;
53263;SDS011;39153;52.680;6.172;2023-06-26T04:27:40;15.48;;;8.10;;
53263;SDS011;39153;52.680;6.172;2023-06-26T04:30:06;15.23;;;6.88;;
53263;SDS011;39153;52.680;6.172;2023-06-26T04:32:32;15.20;;;7.07;;
53263;SDS011;39153;52.680;6.172;2023-06-26T04:34:58;16.85;;;7.43;;
53263;SDS011;39153;52.680;6.172;2023-06-26T04:37:24;17.17;;;7.43;;
53263;SDS011;39153;52.680;6.172;2023-06-26T04:39:50;15.45;;;7.07;;
53263;SDS011;39153;52.680;6.172;2023-06-26T04:42:16;14.68;;;7.00;;
53263;SDS011;39153;52.680;6.172;2023-06-26T04:44:42;14.57;;;6.97;;
53263;SDS011;39153;52.680;6.172;2023-06-26T04:47:08;17.27;;;7.05;;
53263;SDS011;39153;52.680;6.172;2023-06-26T04:49:34;16.65;;;6.57;;
53263;SDS011;39153;52.680;6.172;2023-06-26T04:52:00;18.40;;;6.82;;
53263;SDS011;39153;52.680;6.172;2023-06-26T04:54:25;12.57;;;5.97;;
53263;SDS011;39153;52.680;6.172;2023-06-26T04:56:55;17.58;;;6.68;;
53263;SDS011;39153;52.680;6.172;2023-06-26T04:59:21;15.75;;;6.82;;
53263;SDS011;39153;52.680;6.172;2023-06-26T05:01:47;13.65;;;6.68;;
53263;SDS011;39153;52.680;6.172;2023-06-26T05:04:13;17.77;;;6.35;;
53263;SDS011;39153;52.680;6.172;2023-06-26T05:06:40;12.88;;;6.97;;
53263;SDS011;39153;52.680;6.172;2023-06-26T05:09:06;14.15;;;6.32;;
53263;SDS011;39153;52.680;6.172;2023-06-26T05:11:32;13.70;;;6.50;;
53263;SDS011;39153;52.680;6.172;2023-06-26T05:13:57;14.88;;;6.70;;
53263;SDS011;39153;52.680;6.172;2023-06-26T05:16:23;14.10;;;6.50;;
53263;SDS011;39153;52.680;6.172;2023-06-26T05:18:49;13.88;;;6.40;;
53263;SDS011;39153;52.680;6.172;2023-06-26T05:21:15;11.35;;;6.43;;
53263;SDS011;39153;52.680;6.172;2023-06-26T05:23:41;12.30;;;6.32;;
53263;SDS011;39153;52.680;6.172;2023-06-26T05:26:09;14.82;;;5.75;;
53263;SDS011;39153;52.680;6.172;2023-06-26T05:28:36;11.30;;;5.18;;
53263;SDS011;39153;52.680;6.172;2023-06-26T05:31:02;12.05;;;5.07;;
53263;SDS011;39153;52.680;6.172;2023-06-26T05:33:30;7.80;;;4.30;;
53263;SDS011;39153;52.680;6.172;2023-06-26T05:35:56;11.30;;;4.38;;
53263;SDS011;39153;52.680;6.172;2023-06-26T05:38:24;7.97;;;4.05;;
53263;SDS011;39153;52.680;6.172;2023-06-26T05:40:50;7.47;;;4.00;;
53263;SDS011;39153;52.680;6.172;2023-06-26T05:43:16;9.85;;;3.45;;
53263;SDS011;39153;52.680;6.172;2023-06-26T05:45:46;9.20;;;3.13;;
53263;SDS011;39153;52.680;6.172;2023-06-26T05:48:13;6.68;;;2.90;;
53263;SDS011;39153;52.680;6.172;2023-06-26T05:50:39;7.60;;;3.25;;
53263;SDS011;39153;52.680;6.172;2023-06-26T05:53:07;8.25;;;3.15;;
53263;SDS011;39153;52.680;6.172;2023-06-26T05:55:33;7.95;;;2.85;;
53263;SDS011;39153;52.680;6.172;2023-06-26T05:57:59;7.15;;;2.63;;
53263;SDS011;39153;52.680;6.172;2023-06-26T06:00:26;6.30;;;2.50;;
53263;SDS011;39153;52.680;6.172;2023-06-26T06:02:53;6.88;;;2.17;;
53263;SDS011;39153;52.680;6.172;2023-06-26T06:05:19;6.65;;;2.00;;
53263;SDS011;39153;52.680;6.172;2023-06-26T06:07:48;6.97;;;2.13;;
53263;SDS011;39153;52.680;6.172;2023-06-26T06:10:14;6.97;;;2.03;;
53263;SDS011;39153;52.680;6.172;2023-06-26T06:12:40;7.13;;;2.10;;
53263;SDS011;39153;52.680;6.172;2023-06-26T06:15:06;6.85;;;1.90;;
53263;SDS011;39153;52.680;6.172;2023-06-26T06:17:32;5.30;;;1.90;;
53263;SDS011;39153;52.680;6.172;2023-06-26T06:19:57;4.72;;;1.70;;
53263;SDS011;39153;52.680;6.172;2023-06-26T06:22:23;6.85;;;2.10;;
53263;SDS011;39153;52.680;6.172;2023-06-26T06:24:49;4.85;;;2.13;;
53263;SDS011;39153;52.680;6.172;2023-06-26T06:27:15;4.40;;;1.60;;
53263;SDS011;39153;52.680;6.172;2023-06-26T06:29:41;6.45;;;1.90;;
53263;SDS011;39153;52.680;6.172;2023-06-26T06:32:07;5.85;;;1.80;;
53263;SDS011;39153;52.680;6.172;2023-06-26T06:34:33;7.47;;;2.05;;
53263;SDS011;39153;52.680;6.172;2023-06-26T06:36:59;4.63;;;2.03;;
53263;SDS011;39153;52.680;6.172;2023-06-26T06:39:24;5.32;;;2.00;;
53263;SDS011;39153;52.680;6.172;2023-06-26T06:41:50;6.35;;;2.30;;
53263;SDS011;39153;52.680;6.172;2023-06-26T06:44:16;6.85;;;2.20;;
53263;SDS011;39153;52.680;6.172;2023-06-26T06:46:42;6.72;;;2.30;;
53263;SDS011;39153;52.680;6.172;2023-06-26T06:49:08;7.93;;;1.90;;
53263;SDS011;39153;52.680;6.172;2023-06-26T06:51:34;8.15;;;2.38;;
53263;SDS011;39153;52.680;6.172;2023-06-26T06:53:59;6.68;;;2.40;;
53263;SDS011;39153;52.680;6.172;2023-06-26T06:56:26;10.27;;;2.33;;
53263;SDS011;39153;52.680;6.172;2023-06-26T06:58:51;10.93;;;2.55;;
53263;SDS011;39153;52.680;6.172;2023-06-26T07:01:17;6.15;;;2.33;;
53263;SDS011;39153;52.680;6.172;2023-06-26T07:03:43;6.95;;;2.05;;
53263;SDS011;39153;52.680;6.172;2023-06-26T07:06:08;5.50;;;1.95;;
53263;SDS011;39153;52.680;6.172;2023-06-26T07:08:34;4.90;;;1.75;;
53263;SDS011;39153;52.680;6.172;2023-06-26T07:11:00;5.07;;;1.80;;
53263;SDS011;39153;52.680;6.172;2023-06-26T07:13:26;4.25;;;1.85;;
53263;SDS011;39153;52.680;6.172;2023-06-26T07:15:52;5.65;;;1.65;;
53263;SDS011;39153;52.680;6.172;2023-06-26T07:18:17;6.90;;;1.98;;
53263;SDS011;39153;52.680;6.172;2023-06-26T07:20:43;5.53;;;1.90;;
53263;SDS011;39153;52.680;6.172;2023-06-26T07:23:09;6.00;;;1.90;;
53263;SDS011;39153;52.680;6.172;2023-06-26T07:25:35;6.78;;;2.20;;
53263;SDS011;39153;52.680;6.172;2023-06-26T07:28:01;6.95;;;1.75;;
53263;SDS011;39153;52.680;6.172;2023-06-26T07:30:27;6.30;;;1.90;;
53263;SDS011;39153;52.680;6.172;2023-06-26T07:32:52;6.57;;;1.92;;
53263;SDS011;39153;52.680;6.172;2023-06-26T07:35:18;4.75;;;1.77;;
53263;SDS011;39153;52.680;6.172;2023-06-26T07:37:44;4.05;;;1.90;;
53263;SDS011;39153;52.680;6.172;2023-06-26T07:40:10;5.55;;;1.98;;
53263;SDS011;39153;52.680;6.172;2023-06-26T07:42:36;4.28;;;1.85;;
53263;SDS011;39153;52.680;6.172;2023-06-26T07:45:02;9.90;;;2.03;;
53263;SDS011;39153;52.680;6.172;2023-06-26T07:47:35;6.47;;;2.30;;
53263;SDS011;39153;52.680;6.172;2023-06-26T07:50:01;8.98;;;2.67;;
53263;SDS011;39153;52.680;6.172;2023-06-26T07:52:27;10.93;;;2.20;;
53263;SDS011;39153;52.680;6.172;2023-06-26T07:54:52;7.05;;;2.05;;
53263;SDS011;39153;52.680;6.172;2023-06-26T07:57:18;5.47;;;1.92;;
53263;SDS011;39153;52.680;6.172;2023-06-26T07:59:43;5.43;;;1.80;;
53263;SDS011;39153;52.680;6.172;2023-06-26T08:02:09;5.68;;;2.08;;
53263;SDS011;39153;52.680;6.172;2023-06-26T08:04:35;5.07;;;1.85;;
53263;SDS011;39153;52.680;6.172;2023-06-26T08:07:01;6.63;;;2.33;;
53263;SDS011;39153;52.680;6.172;2023-06-26T08:09:29;5.85;;;1.92;;
53263;SDS011;39153;52.680;6.172;2023-06-26T08:11:55;5.35;;;2.30;;
53263;SDS011;39153;52.680;6.172;2023-06-26T08:14:21;5.45;;;2.10;;
53263;SDS011;39153;52.680;6.172;2023-06-26T08:16:48;7.10;;;1.83;;
53263;SDS011;39153;52.680;6.172;2023-06-26T08:19:15;7.45;;;1.98;;
53263;SDS011;39153;52.680;6.172;2023-06-26T08:21:42;7.68;;;2.00;;
53263;SDS011;39153;52.680;6.172;2023-06-26T08:24:08;6.97;;;2.10;;
53263;SDS011;39153;52.680;6.172;2023-06-26T08:26:34;8.15;;;2.08;;
53263;SDS011;39153;52.680;6.172;2023-06-26T08:29:01;5.82;;;1.95;;
53263;SDS011;39153;52.680;6.172;2023-06-26T08:31:32;4.45;;;1.92;;
53263;SDS011;39153;52.680;6.172;2023-06-26T08:34:02;11.35;;;2.13;;
53263;SDS011;39153;52.680;6.172;2023-06-26T08:36:29;7.38;;;2.22;;
53263;SDS011;39153;52.680;6.172;2023-06-26T08:38:54;5.03;;;1.98;;
53263;SDS011;39153;52.680;6.172;2023-06-26T08:41:20;5.63;;;2.13;;
53263;SDS011;39153;52.680;6.172;2023-06-26T08:43:46;8.25;;;2.40;;
53263;SDS011;39153;52.680;6.172;2023-06-26T08:46:13;5.47;;;2.20;;
53263;SDS011;39153;52.680;6.172;2023-06-26T08:48:39;5.38;;;2.17;;
53263;SDS011;39153;52.680;6.172;2023-06-26T08:51:11;7.30;;;2.60;;
53263;SDS011;39153;52.680;6.172;2023-06-26T08:53:43;7.00;;;2.70;;
53263;SDS011;39153;52.680;6.172;2023-06-26T08:56:17;7.55;;;2.72;;
53263;SDS011;39153;52.680;6.172;2023-06-26T08:58:46;5.68;;;2.38;;
53263;SDS011;39153;52.680;6.172;2023-06-26T09:01:12;7.10;;;2.63;;
53263;SDS011;39153;52.680;6.172;2023-06-26T09:03:38;5.78;;;2.63;;
53263;SDS011;39153;52.680;6.172;2023-06-26T09:06:06;7.93;;;2.65;;
53263;SDS011;39153;52.680;6.172;2023-06-26T09:08:32;8.02;;;2.70;;
53263;SDS011;39153;52.680;6.172;2023-06-26T09:10:58;5.40;;;2.42;;
53263;SDS011;39153;52.680;6.172;2023-06-26T09:13:23;7.95;;;2.75;;
53263;SDS011;39153;52.680;6.172;2023-06-26T09:15:49;6.80;;;2.38;;
53263;SDS011;39153;52.680;6.172;2023-06-26T09:18:20;6.53;;;2.50;;
53263;SDS011;39153;52.680;6.172;2023-06-26T09:20:46;6.07;;;2.58;;
53263;SDS011;39153;52.680;6.172;2023-06-26T09:23:13;5.65;;;2.30;;
53263;SDS011;39153;52.680;6.172;2023-06-26T09:25:39;7.05;;;2.33;;
53263;SDS011;39153;52.680;6.172;2023-06-26T09:28:05;7.78;;;2.50;;
53263;SDS011;39153;52.680;6.172;2023-06-26T09:30:32;6.97;;;1.98;;
53263;SDS011;39153;52.680;6.172;2023-06-26T09:33:11;7.95;;;2.35;;
53263;SDS011;39153;52.680;6.172;2023-06-26T09:35:42;7.63;;;2.50;;
53263;SDS011;39153;52.680;6.172;2023-06-26T09:38:08;12.48;;;2.90;;
53263;SDS011;39153;52.680;6.172;2023-06-26T09:40:34;5.90;;;2.25;;
53263;SDS011;39153;52.680;6.172;2023-06-26T09:43:07;7.43;;;2.70;;
53263;SDS011;39153;52.680;6.172;2023-06-26T09:45:35;8.40;;;2.92;;
53263;SDS011;39153;52.680;6.172;2023-06-26T09:48:04;9.77;;;2.60;;
53263;SDS011;39153;52.680;6.172;2023-06-26T09:50:32;7.55;;;2.70;;
53263;SDS011;39153;52.680;6.172;2023-06-26T09:53:12;10.32;;;3.00;;
53263;SDS011;39153;52.680;6.172;2023-06-26T09:55:39;8.60;;;2.42;;
53263;SDS011;39153;52.680;6.172;2023-06-26T09:58:10;8.05;;;2.50;;
53263;SDS011;39153;52.680;6.172;2023-06-26T10:00:40;8.07;;;2.75;;
53263;SDS011;39153;52.680;6.172;2023-06-26T10:03:07;7.38;;;2.10;;
53263;SDS011;39153;52.680;6.172;2023-06-26T10:05:33;6.13;;;2.13;;
53263;SDS011;39153;52.680;6.172;2023-06-26T10:07:59;6.38;;;1.98;;
53263;SDS011;39153;52.680;6.172;2023-06-26T10:10:26;15.27;;;2.60;;
53263;SDS011;39153;52.680;6.172;2023-06-26T10:12:54;12.10;;;2.40;;
53263;SDS011;39153;52.680;6.172;2023-06-26T10:15:24;6.50;;;2.00;;
53263;SDS011;39153;52.680;6.172;2023-06-26T10:17:51;6.78;;;2.10;;
53263;SDS011;39153;52.680;6.172;2023-06-26T10:20:21;5.47;;;1.90;;
53263;SDS011;39153;52.680;6.172;2023-06-26T10:22:47;10.40;;;2.60;;
53263;SDS011;39153;52.680;6.172;2023-06-26T10:25:15;7.15;;;2.42;;
53263;SDS011;39153;52.680;6.172;2023-06-26T10:27:44;5.47;;;1.90;;
53263;SDS011;39153;52.680;6.172;2023-06-26T10:30:15;7.35;;;2.10;;
53263;SDS011;39153;52.680;6.172;2023-06-26T10:32:44;5.95;;;1.92;;
53263;SDS011;39153;52.680;6.172;2023-06-26T10:35:10;9.10;;;2.22;;
53263;SDS011;39153;52.680;6.172;2023-06-26T10:37:49;8.85;;;2.20;;
53263;SDS011;39153;52.680;6.172;2023-06-26T10:40:22;8.80;;;2.13;;
53263;SDS011;39153;52.680;6.172;2023-06-26T10:42:50;9.02;;;2.08;;
53263;SDS011;39153;52.680;6.172;2023-06-26T10:45:30;8.20;;;2.40;;
53263;SDS011;39153;52.680;6.172;2023-06-26T10:47:55;8.48;;;2.13;;
53263;SDS011;39153;52.680;6.172;2023-06-26T10:50:24;8.60;;;2.00;;
53263;SDS011;39153;52.680;6.172;2023-06-26T11:03:38;6.65;;;2.13;;
53263;SDS011;39153;52.680;6.172;2023-06-26T11:08:50;9.52;;;1.92;;
53263;SDS011;39153;52.680;6.172;2023-06-26T11:11:18;12.43;;;2.05;;
53263;SDS011;39153;52.680;6.172;2023-06-26T11:13:46;8.52;;;2.03;;
53263;SDS011;39153;52.680;6.172;2023-06-26T11:16:12;5.93;;;1.63;;
53263;SDS011;39153;52.680;6.172;2023-06-26T11:18:42;7.32;;;1.70;;
53263;SDS011;39153;52.680;6.172;2023-06-26T11:21:11;6.85;;;1.80;;
53263;SDS011;39153;52.680;6.172;2023-06-26T11:23:39;7.82;;;1.58;;
53263;SDS011;39153;52.680;6.172;2023-06-26T11:26:19;6.90;;;1.50;;
53263;SDS011;39153;52.680;6.172;2023-06-26T11:28:50;6.95;;;1.73;;
53263;SDS011;39153;52.680;6.172;2023-06-26T11:31:39;8.05;;;1.70;;
53263;SDS011;39153;52.680;6.172;2023-06-26T11:34:06;6.32;;;1.40;;
53263;SDS011;39153;52.680;6.172;2023-06-26T11:36:37;6.65;;;1.33;;
53263;SDS011;39153;52.680;6.172;2023-06-26T11:39:06;8.35;;;1.10;;
53263;SDS011;39153;52.680;6.172;2023-06-26T11:41:32;5.88;;;1.25;;
53263;SDS011;39153;52.680;6.172;2023-06-26T11:44:03;7.90;;;1.50;;
53263;SDS011;39153;52.680;6.172;2023-06-26T11:46:30;6.50;;;1.60;;
53263;SDS011;39153;52.680;6.172;2023-06-26T11:48:56;7.97;;;1.77;;
53263;SDS011;39153;52.680;6.172;2023-06-26T11:51:22;6.63;;;1.23;;
53263;SDS011;39153;52.680;6.172;2023-06-26T11:53:49;10.20;;;1.70;;
53263;SDS011;39153;52.680;6.172;2023-06-26T11:56:15;6.15;;;1.33;;
53263;SDS011;39153;52.680;6.172;2023-06-26T12:01:43;6.80;;;1.60;;
53263;SDS011;39153;52.680;6.172;2023-06-26T12:04:12;6.88;;;1.75;;
53263;SDS011;39153;52.680;6.172;2023-06-26T12:06:43;4.88;;;1.33;;
53263;SDS011;39153;52.680;6.172;2023-06-26T12:09:12;8.77;;;1.50;;
53263;SDS011;39153;52.680;6.172;2023-06-26T12:11:40;6.43;;;1.30;;
53263;SDS011;39153;52.680;6.172;2023-06-26T12:14:07;9.48;;;1.48;;
53263;SDS011;39153;52.680;6.172;2023-06-26T12:16:34;7.15;;;1.30;;
53263;SDS011;39153;52.680;6.172;2023-06-26T12:19:01;7.10;;;1.40;;
53263;SDS011;39153;52.680;6.172;2023-06-26T12:21:28;5.63;;;1.10;;
53263;SDS011;39153;52.680;6.172;2023-06-26T12:24:05;8.10;;;1.60;;
53263;SDS011;39153;52.680;6.172;2023-06-26T12:26:32;7.90;;;1.38;;
53263;SDS011;39153;52.680;6.172;2023-06-26T12:29:11;7.03;;;1.70;;
53263;SDS011;39153;52.680;6.172;2023-06-26T12:31:43;5.22;;;1.33;;
53263;SDS011;39153;52.680;6.172;2023-06-26T12:36:47;7.05;;;1.48;;
53263;SDS011;39153;52.680;6.172;2023-06-26T12:39:15;10.48;;;1.50;;
53263;SDS011;39153;52.680;6.172;2023-06-26T12:41:49;7.55;;;1.58;;
53263;SDS011;39153;52.680;6.172;2023-06-26T12:44:19;7.47;;;1.40;;
53263;SDS011;39153;52.680;6.172;2023-06-26T12:46:46;6.22;;;1.30;;
53263;SDS011;39153;52.680;6.172;2023-06-26T12:49:13;9.40;;;1.45;;
53263;SDS011;39153;52.680;6.172;2023-06-26T12:51:39;4.95;;;1.20;;
53263;SDS011;39153;52.680;6.172;2023-06-26T12:54:05;4.90;;;1.10;;
53263;SDS011;39153;52.680;6.172;2023-06-26T12:56:31;5.68;;;1.13;;
53263;SDS011;39153;52.680;6.172;2023-06-26T12:58:56;5.20;;;1.13;;
53263;SDS011;39153;52.680;6.172;2023-06-26T13:01:22;9.02;;;1.60;;
53263;SDS011;39153;52.680;6.172;2023-06-26T13:03:49;9.55;;;1.38;;
53263;SDS011;39153;52.680;6.172;2023-06-26T13:06:16;10.30;;;1.15;;
53263;SDS011;39153;52.680;6.172;2023-06-26T13:08:42;7.03;;;1.50;;
53263;SDS011;39153;52.680;6.172;2023-06-26T13:11:08;10.45;;;1.92;;
53263;SDS011;39153;52.680;6.172;2023-06-26T13:13:34;5.15;;;1.10;;
53263;SDS011;39153;52.680;6.172;2023-06-26T13:16:00;5.80;;;1.48;;
53263;SDS011;39153;52.680;6.172;2023-06-26T13:18:25;5.78;;;1.20;;
53263;SDS011;39153;52.680;6.172;2023-06-26T13:20:51;8.20;;;1.52;;
53263;SDS011;39153;52.680;6.172;2023-06-26T13:23:17;5.30;;;1.38;;
53263;SDS011;39153;52.680;6.172;2023-06-26T13:25:44;5.13;;;1.30;;
53263;SDS011;39153;52.680;6.172;2023-06-26T13:28:10;7.70;;;1.55;;
53263;SDS011;39153;52.680;6.172;2023-06-26T13:30:36;6.15;;;1.27;;
53263;SDS011;39153;52.680;6.172;2023-06-26T13:33:01;8.77;;;1.33;;
53263;SDS011;39153;52.680;6.172;2023-06-26T13:35:28;8.57;;;1.30;;
53263;SDS011;39153;52.680;6.172;2023-06-26T13:37:53;4.03;;;1.27;;
53263;SDS011;39153;52.680;6.172;2023-06-26T13:40:19;9.32;;;1.20;;
53263;SDS011;39153;52.680;6.172;2023-06-26T13:42:45;4.07;;;1.10;;
53263;SDS011;39153;52.680;6.172;2023-06-26T13:45:10;3.42;;;0.98;;
53263;SDS011;39153;52.680;6.172;2023-06-26T13:47:37;3.72;;;1.13;;
53263;SDS011;39153;52.680;6.172;2023-06-26T13:50:06;6.45;;;1.30;;
53263;SDS011;39153;52.680;6.172;2023-06-26T13:52:33;4.03;;;1.33;;
53263;SDS011;39153;52.680;6.172;2023-06-26T13:54:59;6.03;;;1.17;;
53263;SDS011;39153;52.680;6.172;2023-06-26T13:57:24;8.32;;;1.40;;
53263;SDS011;39153;52.680;6.172;2023-06-26T13:59:52;5.43;;;1.30;;
53263;SDS011;39153;52.680;6.172;2023-06-26T14:02:18;7.75;;;1.17;;
53263;SDS011;39153;52.680;6.172;2023-06-26T14:04:43;10.05;;;2.00;;
53263;SDS011;39153;52.680;6.172;2023-06-26T14:07:09;8.35;;;1.67;;
53263;SDS011;39153;52.680;6.172;2023-06-26T14:09:35;7.97;;;1.90;;
53263;SDS011;39153;52.680;6.172;2023-06-26T14:12:01;4.72;;;1.10;;
53263;SDS011;39153;52.680;6.172;2023-06-26T14:14:26;6.00;;;1.00;;
53263;SDS011;39153;52.680;6.172;2023-06-26T14:16:52;5.90;;;1.23;;
53263;SDS011;39153;52.680;6.172;2023-06-26T14:19:18;4.78;;;1.10;;
53263;SDS011;39153;52.680;6.172;2023-06-26T14:21:44;5.30;;;1.30;;
53263;SDS011;39153;52.680;6.172;2023-06-26T14:24:10;4.57;;;1.00;;
53263;SDS011;39153;52.680;6.172;2023-06-26T14:26:35;6.22;;;1.20;;
53263;SDS011;39153;52.680;6.172;2023-06-26T14:29:02;5.80;;;1.27;;
53263;SDS011;39153;52.680;6.172;2023-06-26T14:31:27;2.65;;;0.70;;
53263;SDS011;39153;52.680;6.172;2023-06-26T14:33:54;5.30;;;1.00;;
53263;SDS011;39153;52.680;6.172;2023-06-26T14:36:19;4.63;;;0.90;;
53263;SDS011;39153;52.680;6.172;2023-06-26T14:38:45;4.03;;;1.02;;
53263;SDS011;39153;52.680;6.172;2023-06-26T14:41:11;4.10;;;1.00;;
53263;SDS011;39153;52.680;6.172;2023-06-26T14:43:38;7.40;;;1.23;;
53263;SDS011;39153;52.680;6.172;2023-06-26T14:46:04;6.30;;;1.58;;
53263;SDS011;39153;52.680;6.172;2023-06-26T14:48:29;6.10;;;1.20;;
53263;SDS011;39153;52.680;6.172;2023-06-26T14:50:55;7.47;;;1.10;;
53263;SDS011;39153;52.680;6.172;2023-06-26T14:53:21;5.68;;;1.30;;
53263;SDS011;39153;52.680;6.172;2023-06-26T14:55:47;4.30;;;0.90;;
53263;SDS011;39153;52.680;6.172;2023-06-26T14:58:12;4.50;;;1.05;;
53263;SDS011;39153;52.680;6.172;2023-06-26T15:00:38;4.80;;;0.95;;
53263;SDS011;39153;52.680;6.172;2023-06-26T15:03:04;4.50;;;1.27;;